sensor_id;sensor_type;location;lat;lon;timestamp;P1;durP1;ratioP1;P2;durP2;ratioP2
4700;SDS011;8724;51.272;6.554;2023-10-09T00:00:07;8.60;;;6.47;;
4700;SDS011;8724;51.272;6.554;2023-10-09T00:03:17;9.50;;;7.47;;
4700;SDS011;8724;51.272;6.554;2023-10-09T00:05:45;7.90;;;6.13;;
4700;SDS011;8724;51.272;6.554;2023-10-09T00:08:14;6.73;;;6.03;;
4700;SDS011;8724;51.272;6.554;2023-10-09T00:10:48;11.07;;;7.00;;
4700;SDS011;8724;51.272;6.554;2023-10-09T00:13:21;10.73;;;7.27;;
4700;SDS011;8724;51.272;6.554;2023-10-09T00:15:56;9.33;;;6.93;;
4700;SDS011;8724;51.272;6.554;2023-10-09T00:18:28;7.93;;;6.27;;
4700;SDS011;8724;51.272;6.554;2023-10-09T00:20:56;9.43;;;6.60;;
4700;SDS011;8724;51.272;6.554;2023-10-09T00:23:38;8.23;;;6.23;;
4700;SDS011;8724;51.272;6.554;2023-10-09T00:26:06;9.10;;;7.00;;
4700;SDS011;8724;51.272;6.554;2023-10-09T00:28:48;7.27;;;6.33;;
4700;SDS011;8724;51.272;6.554;2023-10-09T00:31:17;7.33;;;5.70;;
4700;SDS011;8724;51.272;6.554;2023-10-09T00:33:56;12.07;;;6.07;;
4700;SDS011;8724;51.272;6.554;2023-10-09T00:36:35;8.73;;;6.33;;
4700;SDS011;8724;51.272;6.554;2023-10-09T00:39:17;8.33;;;6.40;;
4700;SDS011;8724;51.272;6.554;2023-10-09T00:42:00;10.70;;;6.30;;
4700;SDS011;8724;51.272;6.554;2023-10-09T00:44:30;8.53;;;6.40;;
4700;SDS011;8724;51.272;6.554;2023-10-09T00:47:06;11.07;;;6.70;;
4700;SDS011;8724;51.272;6.554;2023-10-09T00:49:51;8.50;;;5.40;;
4700;SDS011;8724;51.272;6.554;2023-10-09T00:52:26;7.17;;;5.87;;
4700;SDS011;8724;51.272;6.554;2023-10-09T00:55:00;8.83;;;6.50;;
4700;SDS011;8724;51.272;6.554;2023-10-09T00:57:34;8.90;;;5.80;;
4700;SDS011;8724;51.272;6.554;2023-10-09T01:00:08;7.50;;;5.03;;
4700;SDS011;8724;51.272;6.554;2023-10-09T01:02:56;6.80;;;5.13;;
4700;SDS011;8724;51.272;6.554;2023-10-09T01:05:38;6.73;;;5.43;;
4700;SDS011;8724;51.272;6.554;2023-10-09T01:08:12;6.57;;;5.77;;
4700;SDS011;8724;51.272;6.554;2023-10-09T01:10:51;5.67;;;4.93;;
4700;SDS011;8724;51.272;6.554;2023-10-09T01:13:23;6.03;;;5.43;;
4700;SDS011;8724;51.272;6.554;2023-10-09T01:16:07;7.17;;;5.63;;
4700;SDS011;8724;51.272;6.554;2023-10-09T01:18:40;13.30;;;6.83;;
4700;SDS011;8724;51.272;6.554;2023-10-09T01:21:11;8.33;;;6.20;;
4700;SDS011;8724;51.272;6.554;2023-10-09T01:23:43;7.03;;;5.60;;
4700;SDS011;8724;51.272;6.554;2023-10-09T01:26:29;8.80;;;6.67;;
4700;SDS011;8724;51.272;6.554;2023-10-09T01:29:01;11.73;;;6.17;;
4700;SDS011;8724;51.272;6.554;2023-10-09T01:31:30;6.57;;;5.37;;
4700;SDS011;8724;51.272;6.554;2023-10-09T01:34:04;7.30;;;5.70;;
4700;SDS011;8724;51.272;6.554;2023-10-09T01:36:36;10.63;;;6.00;;
4700;SDS011;8724;51.272;6.554;2023-10-09T01:39:07;9.17;;;5.50;;
4700;SDS011;8724;51.272;6.554;2023-10-09T01:41:47;7.83;;;5.00;;
4700;SDS011;8724;51.272;6.554;2023-10-09T01:44:18;8.50;;;5.87;;
4700;SDS011;8724;51.272;6.554;2023-10-09T01:46:47;6.77;;;5.20;;
4700;SDS011;8724;51.272;6.554;2023-10-09T01:49:19;5.83;;;5.10;;
4700;SDS011;8724;51.272;6.554;2023-10-09T01:51:56;8.83;;;5.57;;
4700;SDS011;8724;51.272;6.554;2023-10-09T01:54:31;6.23;;;5.30;;
4700;SDS011;8724;51.272;6.554;2023-10-09T01:57:04;8.10;;;6.13;;
4700;SDS011;8724;51.272;6.554;2023-10-09T01:59:37;7.90;;;5.50;;
4700;SDS011;8724;51.272;6.554;2023-10-09T02:02:11;7.80;;;5.93;;
4700;SDS011;8724;51.272;6.554;2023-10-09T02:04:53;7.43;;;5.60;;
4700;SDS011;8724;51.272;6.554;2023-10-09T02:07:33;13.90;;;6.20;;
4700;SDS011;8724;51.272;6.554;2023-10-09T02:10:09;8.87;;;6.23;;
4700;SDS011;8724;51.272;6.554;2023-10-09T02:12:52;7.47;;;5.30;;
4700;SDS011;8724;51.272;6.554;2023-10-09T02:15:25;10.37;;;5.90;;
4700;SDS011;8724;51.272;6.554;2023-10-09T02:18:19;8.30;;;5.10;;
4700;SDS011;8724;51.272;6.554;2023-10-09T02:21:06;8.90;;;6.40;;
4700;SDS011;8724;51.272;6.554;2023-10-09T02:23:41;9.63;;;5.50;;
4700;SDS011;8724;51.272;6.554;2023-10-09T02:26:17;7.00;;;5.20;;
4700;SDS011;8724;51.272;6.554;2023-10-09T02:28:53;8.07;;;6.00;;
4700;SDS011;8724;51.272;6.554;2023-10-09T02:31:26;7.07;;;5.50;;
4700;SDS011;8724;51.272;6.554;2023-10-09T02:34:04;12.93;;;6.93;;
4700;SDS011;8724;51.272;6.554;2023-10-09T02:36:39;8.70;;;6.07;;
4700;SDS011;8724;51.272;6.554;2023-10-09T02:39:09;8.80;;;5.90;;
4700;SDS011;8724;51.272;6.554;2023-10-09T02:41:49;9.40;;;6.07;;
4700;SDS011;8724;51.272;6.554;2023-10-09T02:44:21;7.13;;;5.33;;
4700;SDS011;8724;51.272;6.554;2023-10-09T02:46:57;5.70;;;5.13;;
4700;SDS011;8724;51.272;6.554;2023-10-09T02:49:29;9.30;;;5.43;;
4700;SDS011;8724;51.272;6.554;2023-10-09T02:51:58;13.83;;;5.97;;
4700;SDS011;8724;51.272;6.554;2023-10-09T02:54:31;7.40;;;5.53;;
4700;SDS011;8724;51.272;6.554;2023-10-09T02:57:07;5.63;;;4.60;;
4700;SDS011;8724;51.272;6.554;2023-10-09T02:59:42;7.67;;;4.90;;
4700;SDS011;8724;51.272;6.554;2023-10-09T03:02:11;7.40;;;5.00;;
4700;SDS011;8724;51.272;6.554;2023-10-09T03:04:41;8.20;;;5.30;;
4700;SDS011;8724;51.272;6.554;2023-10-09T03:07:09;7.87;;;4.80;;
4700;SDS011;8724;51.272;6.554;2023-10-09T03:09:40;11.10;;;6.30;;
4700;SDS011;8724;51.272;6.554;2023-10-09T03:12:08;6.77;;;5.10;;
4700;SDS011;8724;51.272;6.554;2023-10-09T03:14:39;7.20;;;6.43;;
4700;SDS011;8724;51.272;6.554;2023-10-09T03:17:08;6.73;;;4.60;;
4700;SDS011;8724;51.272;6.554;2023-10-09T03:19:40;7.47;;;5.13;;
4700;SDS011;8724;51.272;6.554;2023-10-09T03:22:10;11.90;;;4.70;;
4700;SDS011;8724;51.272;6.554;2023-10-09T03:24:39;6.67;;;5.60;;
4700;SDS011;8724;51.272;6.554;2023-10-09T03:27:11;7.67;;;5.60;;
4700;SDS011;8724;51.272;6.554;2023-10-09T03:29:40;8.33;;;6.00;;
4700;SDS011;8724;51.272;6.554;2023-10-09T03:32:15;7.33;;;5.67;;
4700;SDS011;8724;51.272;6.554;2023-10-09T03:34:45;8.50;;;4.83;;
4700;SDS011;8724;51.272;6.554;2023-10-09T03:37:16;6.87;;;5.37;;
4700;SDS011;8724;51.272;6.554;2023-10-09T03:39:59;6.67;;;5.57;;
4700;SDS011;8724;51.272;6.554;2023-10-09T03:42:28;8.97;;;5.20;;
4700;SDS011;8724;51.272;6.554;2023-10-09T03:44:57;8.40;;;5.67;;
4700;SDS011;8724;51.272;6.554;2023-10-09T03:47:25;6.90;;;5.57;;
4700;SDS011;8724;51.272;6.554;2023-10-09T03:49:55;10.17;;;5.30;;
4700;SDS011;8724;51.272;6.554;2023-10-09T03:52:29;6.13;;;5.53;;
4700;SDS011;8724;51.272;6.554;2023-10-09T03:54:57;5.63;;;4.63;;
4700;SDS011;8724;51.272;6.554;2023-10-09T03:57:27;6.17;;;4.67;;
4700;SDS011;8724;51.272;6.554;2023-10-09T03:59:55;7.60;;;5.10;;
4700;SDS011;8724;51.272;6.554;2023-10-09T04:02:23;7.03;;;4.90;;
4700;SDS011;8724;51.272;6.554;2023-10-09T04:04:52;11.90;;;6.37;;
4700;SDS011;8724;51.272;6.554;2023-10-09T04:07:21;6.07;;;5.33;;
4700;SDS011;8724;51.272;6.554;2023-10-09T04:09:49;11.30;;;5.97;;
4700;SDS011;8724;51.272;6.554;2023-10-09T04:12:38;5.53;;;5.00;;
4700;SDS011;8724;51.272;6.554;2023-10-09T04:15:06;7.07;;;5.73;;
4700;SDS011;8724;51.272;6.554;2023-10-09T04:17:41;8.93;;;6.90;;
4700;SDS011;8724;51.272;6.554;2023-10-09T04:20:10;7.20;;;5.20;;
4700;SDS011;8724;51.272;6.554;2023-10-09T04:22:59;6.80;;;5.37;;
4700;SDS011;8724;51.272;6.554;2023-10-09T04:25:31;6.83;;;5.80;;
4700;SDS011;8724;51.272;6.554;2023-10-09T04:28:09;9.70;;;6.60;;
4700;SDS011;8724;51.272;6.554;2023-10-09T04:30:46;7.60;;;6.30;;
4700;SDS011;8724;51.272;6.554;2023-10-09T04:33:20;9.20;;;5.73;;
4700;SDS011;8724;51.272;6.554;2023-10-09T04:36:10;7.43;;;5.17;;
4700;SDS011;8724;51.272;6.554;2023-10-09T04:38:51;6.70;;;5.17;;
4700;SDS011;8724;51.272;6.554;2023-10-09T04:41:42;8.87;;;6.00;;
4700;SDS011;8724;51.272;6.554;2023-10-09T04:44:25;6.70;;;5.90;;
4700;SDS011;8724;51.272;6.554;2023-10-09T04:46:56;7.90;;;5.60;;
4700;SDS011;8724;51.272;6.554;2023-10-09T04:49:41;8.37;;;5.80;;
4700;SDS011;8724;51.272;6.554;2023-10-09T04:52:16;12.50;;;5.60;;
4700;SDS011;8724;51.272;6.554;2023-10-09T04:54:47;9.80;;;6.70;;
4700;SDS011;8724;51.272;6.554;2023-10-09T04:57:29;5.67;;;5.07;;
4700;SDS011;8724;51.272;6.554;2023-10-09T05:00:05;8.17;;;5.63;;
4700;SDS011;8724;51.272;6.554;2023-10-09T05:02:48;9.67;;;6.00;;
4700;SDS011;8724;51.272;6.554;2023-10-09T05:05:21;12.40;;;5.90;;
4700;SDS011;8724;51.272;6.554;2023-10-09T05:08:04;10.17;;;6.80;;
4700;SDS011;8724;51.272;6.554;2023-10-09T05:10:47;8.47;;;6.37;;
4700;SDS011;8724;51.272;6.554;2023-10-09T05:13:32;8.93;;;6.20;;
4700;SDS011;8724;51.272;6.554;2023-10-09T05:16:12;6.47;;;5.77;;
4700;SDS011;8724;51.272;6.554;2023-10-09T05:18:42;7.80;;;6.63;;
4700;SDS011;8724;51.272;6.554;2023-10-09T05:21:12;9.03;;;6.87;;
4700;SDS011;8724;51.272;6.554;2023-10-09T05:24:12;7.10;;;5.77;;
4700;SDS011;8724;51.272;6.554;2023-10-09T05:26:47;7.60;;;6.00;;
4700;SDS011;8724;51.272;6.554;2023-10-09T05:29:20;8.40;;;5.93;;
4700;SDS011;8724;51.272;6.554;2023-10-09T05:32:02;7.97;;;6.10;;
4700;SDS011;8724;51.272;6.554;2023-10-09T05:34:32;9.33;;;5.43;;
4700;SDS011;8724;51.272;6.554;2023-10-09T05:37:00;9.00;;;7.13;;
4700;SDS011;8724;51.272;6.554;2023-10-09T05:39:44;5.70;;;5.00;;
4700;SDS011;8724;51.272;6.554;2023-10-09T05:42:26;6.60;;;5.57;;
4700;SDS011;8724;51.272;6.554;2023-10-09T05:45:10;9.00;;;6.30;;
4700;SDS011;8724;51.272;6.554;2023-10-09T05:47:58;9.60;;;6.77;;
4700;SDS011;8724;51.272;6.554;2023-10-09T05:50:33;11.20;;;7.10;;
4700;SDS011;8724;51.272;6.554;2023-10-09T05:53:01;8.20;;;6.73;;
4700;SDS011;8724;51.272;6.554;2023-10-09T05:55:36;9.30;;;6.70;;
4700;SDS011;8724;51.272;6.554;2023-10-09T05:58:46;10.83;;;7.00;;
4700;SDS011;8724;51.272;6.554;2023-10-09T06:01:31;9.60;;;7.30;;
4700;SDS011;8724;51.272;6.554;2023-10-09T06:04:17;8.93;;;7.10;;
4700;SDS011;8724;51.272;6.554;2023-10-09T06:06:47;9.40;;;7.20;;
4700;SDS011;8724;51.272;6.554;2023-10-09T06:09:23;11.20;;;7.03;;
4700;SDS011;8724;51.272;6.554;2023-10-09T06:12:16;8.30;;;6.40;;
4700;SDS011;8724;51.272;6.554;2023-10-09T06:15:04;8.30;;;6.87;;
4700;SDS011;8724;51.272;6.554;2023-10-09T06:18:17;7.97;;;6.17;;
4700;SDS011;8724;51.272;6.554;2023-10-09T06:20:59;11.17;;;8.37;;
4700;SDS011;8724;51.272;6.554;2023-10-09T06:23:57;9.97;;;7.33;;
4700;SDS011;8724;51.272;6.554;2023-10-09T06:26:36;11.73;;;8.17;;
4700;SDS011;8724;51.272;6.554;2023-10-09T06:29:07;10.40;;;7.60;;
4700;SDS011;8724;51.272;6.554;2023-10-09T06:31:42;11.10;;;7.43;;
4700;SDS011;8724;51.272;6.554;2023-10-09T06:34:31;10.93;;;7.73;;
4700;SDS011;8724;51.272;6.554;2023-10-09T06:36:59;8.43;;;6.47;;
4700;SDS011;8724;51.272;6.554;2023-10-09T06:39:34;8.10;;;6.13;;
4700;SDS011;8724;51.272;6.554;2023-10-09T06:42:19;8.40;;;6.73;;
4700;SDS011;8724;51.272;6.554;2023-10-09T06:45:13;7.70;;;6.00;;
4700;SDS011;8724;51.272;6.554;2023-10-09T06:47:46;11.10;;;6.70;;
4700;SDS011;8724;51.272;6.554;2023-10-09T06:50:22;11.20;;;7.30;;
4700;SDS011;8724;51.272;6.554;2023-10-09T06:53:14;8.00;;;6.67;;
4700;SDS011;8724;51.272;6.554;2023-10-09T06:55:53;7.33;;;6.03;;
4700;SDS011;8724;51.272;6.554;2023-10-09T06:58:31;10.93;;;7.10;;
4700;SDS011;8724;51.272;6.554;2023-10-09T07:01:08;10.67;;;7.47;;
4700;SDS011;8724;51.272;6.554;2023-10-09T07:03:57;13.13;;;6.67;;
4700;SDS011;8724;51.272;6.554;2023-10-09T07:06:37;7.77;;;6.17;;
4700;SDS011;8724;51.272;6.554;2023-10-09T07:09:18;14.00;;;7.77;;
4700;SDS011;8724;51.272;6.554;2023-10-09T07:11:46;11.07;;;7.17;;
4700;SDS011;8724;51.272;6.554;2023-10-09T07:14:25;8.93;;;7.33;;
4700;SDS011;8724;51.272;6.554;2023-10-09T07:17:11;13.60;;;7.40;;
4700;SDS011;8724;51.272;6.554;2023-10-09T07:20:11;12.47;;;7.97;;
4700;SDS011;8724;51.272;6.554;2023-10-09T07:22:42;11.33;;;7.83;;
4700;SDS011;8724;51.272;6.554;2023-10-09T07:25:40;11.30;;;7.80;;
4700;SDS011;8724;51.272;6.554;2023-10-09T07:28:21;10.80;;;7.93;;
4700;SDS011;8724;51.272;6.554;2023-10-09T07:31:03;12.67;;;7.30;;
4700;SDS011;8724;51.272;6.554;2023-10-09T07:33:36;10.50;;;7.30;;
4700;SDS011;8724;51.272;6.554;2023-10-09T07:36:25;14.53;;;6.60;;
4700;SDS011;8724;51.272;6.554;2023-10-09T07:39:01;11.00;;;6.40;;
4700;SDS011;8724;51.272;6.554;2023-10-09T07:41:40;8.20;;;7.27;;
4700;SDS011;8724;51.272;6.554;2023-10-09T07:44:22;11.70;;;7.93;;
4700;SDS011;8724;51.272;6.554;2023-10-09T07:47:03;10.83;;;7.40;;
4700;SDS011;8724;51.272;6.554;2023-10-09T07:49:44;15.20;;;8.03;;
4700;SDS011;8724;51.272;6.554;2023-10-09T07:52:20;9.40;;;6.70;;
4700;SDS011;8724;51.272;6.554;2023-10-09T07:54:52;8.90;;;6.43;;
4700;SDS011;8724;51.272;6.554;2023-10-09T07:57:28;11.30;;;7.90;;
4700;SDS011;8724;51.272;6.554;2023-10-09T08:00:06;9.30;;;6.90;;
4700;SDS011;8724;51.272;6.554;2023-10-09T08:02:55;7.63;;;6.30;;
4700;SDS011;8724;51.272;6.554;2023-10-09T08:05:27;9.80;;;6.93;;
4700;SDS011;8724;51.272;6.554;2023-10-09T08:08:02;9.43;;;7.27;;
4700;SDS011;8724;51.272;6.554;2023-10-09T08:11:08;14.73;;;7.10;;
4700;SDS011;8724;51.272;6.554;2023-10-09T08:13:54;11.37;;;8.27;;
4700;SDS011;8724;51.272;6.554;2023-10-09T08:16:27;10.83;;;7.13;;
4700;SDS011;8724;51.272;6.554;2023-10-09T08:19:03;12.33;;;7.50;;
4700;SDS011;8724;51.272;6.554;2023-10-09T08:21:57;11.73;;;8.20;;
4700;SDS011;8724;51.272;6.554;2023-10-09T08:25:05;13.50;;;8.83;;
4700;SDS011;8724;51.272;6.554;2023-10-09T08:27:34;10.63;;;7.43;;
4700;SDS011;8724;51.272;6.554;2023-10-09T08:30:20;7.60;;;6.80;;
4700;SDS011;8724;51.272;6.554;2023-10-09T08:33:07;9.50;;;7.03;;
4700;SDS011;8724;51.272;6.554;2023-10-09T08:35:55;16.13;;;7.60;;
4700;SDS011;8724;51.272;6.554;2023-10-09T08:38:30;11.60;;;8.07;;
4700;SDS011;8724;51.272;6.554;2023-10-09T08:41:10;9.53;;;6.53;;
4700;SDS011;8724;51.272;6.554;2023-10-09T08:43:48;10.20;;;7.23;;
4700;SDS011;8724;51.272;6.554;2023-10-09T08:46:19;10.37;;;6.33;;
4700;SDS011;8724;51.272;6.554;2023-10-09T08:48:48;12.53;;;9.13;;
4700;SDS011;8724;51.272;6.554;2023-10-09T08:51:17;9.40;;;6.67;;
4700;SDS011;8724;51.272;6.554;2023-10-09T08:53:46;9.73;;;8.00;;
4700;SDS011;8724;51.272;6.554;2023-10-09T08:56:16;9.23;;;7.70;;
4700;SDS011;8724;51.272;6.554;2023-10-09T08:58:49;9.80;;;6.87;;
4700;SDS011;8724;51.272;6.554;2023-10-09T09:01:20;7.93;;;6.87;;
4700;SDS011;8724;51.272;6.554;2023-10-09T09:03:49;9.43;;;6.13;;
4700;SDS011;8724;51.272;6.554;2023-10-09T09:06:18;9.80;;;7.17;;
4700;SDS011;8724;51.272;6.554;2023-10-09T09:08:46;9.90;;;7.27;;
4700;SDS011;8724;51.272;6.554;2023-10-09T09:11:16;10.43;;;7.13;;
4700;SDS011;8724;51.272;6.554;2023-10-09T09:13:59;10.07;;;7.17;;
4700;SDS011;8724;51.272;6.554;2023-10-09T09:16:32;11.03;;;7.77;;
4700;SDS011;8724;51.272;6.554;2023-10-09T09:19:02;11.97;;;8.10;;
4700;SDS011;8724;51.272;6.554;2023-10-09T09:21:47;17.07;;;8.30;;
4700;SDS011;8724;51.272;6.554;2023-10-09T09:24:20;14.27;;;8.87;;
4700;SDS011;8724;51.272;6.554;2023-10-09T09:27:01;11.47;;;7.90;;
4700;SDS011;8724;51.272;6.554;2023-10-09T09:29:40;11.50;;;8.07;;
4700;SDS011;8724;51.272;6.554;2023-10-09T09:32:26;10.57;;;8.07;;
4700;SDS011;8724;51.272;6.554;2023-10-09T09:35:02;13.63;;;8.97;;
4700;SDS011;8724;51.272;6.554;2023-10-09T09:37:32;14.83;;;8.30;;
4700;SDS011;8724;51.272;6.554;2023-10-09T09:40:17;12.27;;;8.47;;
4700;SDS011;8724;51.272;6.554;2023-10-09T09:43:02;10.23;;;6.87;;
4700;SDS011;8724;51.272;6.554;2023-10-09T09:45:34;9.37;;;6.93;;
4700;SDS011;8724;51.272;6.554;2023-10-09T09:48:03;10.23;;;6.97;;
4700;SDS011;8724;51.272;6.554;2023-10-09T09:50:33;12.27;;;8.37;;
4700;SDS011;8724;51.272;6.554;2023-10-09T09:53:10;11.70;;;7.97;;
4700;SDS011;8724;51.272;6.554;2023-10-09T09:55:44;8.30;;;7.00;;
4700;SDS011;8724;51.272;6.554;2023-10-09T09:58:24;12.47;;;8.30;;
4700;SDS011;8724;51.272;6.554;2023-10-09T10:01:00;11.37;;;7.27;;
4700;SDS011;8724;51.272;6.554;2023-10-09T10:03:36;13.47;;;8.13;;
4700;SDS011;8724;51.272;6.554;2023-10-09T10:06:10;11.37;;;7.90;;
4700;SDS011;8724;51.272;6.554;2023-10-09T10:08:41;10.80;;;6.23;;
4700;SDS011;8724;51.272;6.554;2023-10-09T10:11:14;7.77;;;6.97;;
4700;SDS011;8724;51.272;6.554;2023-10-09T10:14:18;13.30;;;7.70;;
4700;SDS011;8724;51.272;6.554;2023-10-09T10:17:02;9.63;;;6.17;;
4700;SDS011;8724;51.272;6.554;2023-10-09T10:22:50;10.60;;;7.67;;
4700;SDS011;8724;51.272;6.554;2023-10-09T10:25:33;12.73;;;7.50;;
4700;SDS011;8724;51.272;6.554;2023-10-09T10:28:19;14.90;;;8.53;;
4700;SDS011;8724;51.272;6.554;2023-10-09T10:31:02;10.33;;;8.10;;
4700;SDS011;8724;51.272;6.554;2023-10-09T10:36:33;11.73;;;8.30;;
4700;SDS011;8724;51.272;6.554;2023-10-09T10:39:02;13.20;;;8.63;;
4700;SDS011;8724;51.272;6.554;2023-10-09T10:41:34;10.63;;;7.87;;
4700;SDS011;8724;51.272;6.554;2023-10-09T10:44:25;13.70;;;8.60;;
4700;SDS011;8724;51.272;6.554;2023-10-09T10:47:11;11.67;;;9.07;;
4700;SDS011;8724;51.272;6.554;2023-10-09T10:49:58;18.33;;;8.20;;
4700;SDS011;8724;51.272;6.554;2023-10-09T10:52:38;12.47;;;7.93;;
4700;SDS011;8724;51.272;6.554;2023-10-09T10:55:10;10.00;;;7.67;;
4700;SDS011;8724;51.272;6.554;2023-10-09T10:58:14;12.90;;;9.73;;
4700;SDS011;8724;51.272;6.554;2023-10-09T11:00:54;13.10;;;8.30;;
4700;SDS011;8724;51.272;6.554;2023-10-09T11:03:42;12.00;;;7.50;;
4700;SDS011;8724;51.272;6.554;2023-10-09T11:06:26;14.20;;;8.40;;
4700;SDS011;8724;51.272;6.554;2023-10-09T11:09:03;14.10;;;7.67;;
4700;SDS011;8724;51.272;6.554;2023-10-09T11:11:48;13.73;;;8.10;;
4700;SDS011;8724;51.272;6.554;2023-10-09T11:14:22;12.03;;;8.23;;
4700;SDS011;8724;51.272;6.554;2023-10-09T11:16:51;15.00;;;8.10;;
4700;SDS011;8724;51.272;6.554;2023-10-09T11:19:25;11.20;;;7.47;;
4700;SDS011;8724;51.272;6.554;2023-10-09T11:21:59;14.00;;;7.70;;
4700;SDS011;8724;51.272;6.554;2023-10-09T11:24:42;11.43;;;7.27;;
4700;SDS011;8724;51.272;6.554;2023-10-09T11:27:11;11.17;;;7.80;;
4700;SDS011;8724;51.272;6.554;2023-10-09T11:29:48;14.60;;;9.07;;
4700;SDS011;8724;51.272;6.554;2023-10-09T11:32:35;12.37;;;6.63;;
4700;SDS011;8724;51.272;6.554;2023-10-09T11:35:11;11.83;;;7.47;;
4700;SDS011;8724;51.272;6.554;2023-10-09T11:37:54;12.17;;;7.60;;
4700;SDS011;8724;51.272;6.554;2023-10-09T11:40:29;9.90;;;8.00;;
4700;SDS011;8724;51.272;6.554;2023-10-09T11:43:14;9.63;;;7.57;;
4700;SDS011;8724;51.272;6.554;2023-10-09T11:45:41;11.20;;;7.53;;
4700;SDS011;8724;51.272;6.554;2023-10-09T11:48:22;12.87;;;7.80;;
4700;SDS011;8724;51.272;6.554;2023-10-09T11:50:52;10.70;;;7.10;;
4700;SDS011;8724;51.272;6.554;2023-10-09T11:53:23;11.70;;;8.53;;
4700;SDS011;8724;51.272;6.554;2023-10-09T11:56:03;11.50;;;8.60;;
4700;SDS011;8724;51.272;6.554;2023-10-09T11:58:31;12.37;;;7.77;;
4700;SDS011;8724;51.272;6.554;2023-10-09T12:00:59;11.37;;;6.67;;
4700;SDS011;8724;51.272;6.554;2023-10-09T12:03:44;12.10;;;7.73;;
4700;SDS011;8724;51.272;6.554;2023-10-09T12:06:17;16.33;;;9.50;;
4700;SDS011;8724;51.272;6.554;2023-10-09T12:08:48;11.43;;;7.60;;
4700;SDS011;8724;51.272;6.554;2023-10-09T12:11:16;14.30;;;8.03;;
4700;SDS011;8724;51.272;6.554;2023-10-09T12:13:50;12.27;;;7.50;;
4700;SDS011;8724;51.272;6.554;2023-10-09T12:16:23;12.30;;;9.57;;
4700;SDS011;8724;51.272;6.554;2023-10-09T12:18:56;14.60;;;7.83;;
4700;SDS011;8724;51.272;6.554;2023-10-09T12:21:25;14.67;;;8.83;;
4700;SDS011;8724;51.272;6.554;2023-10-09T12:23:55;15.30;;;8.50;;
4700;SDS011;8724;51.272;6.554;2023-10-09T12:26:28;11.90;;;8.10;;
4700;SDS011;8724;51.272;6.554;2023-10-09T12:29:01;11.47;;;6.70;;
4700;SDS011;8724;51.272;6.554;2023-10-09T12:31:34;11.20;;;7.47;;
4700;SDS011;8724;51.272;6.554;2023-10-09T12:34:04;11.30;;;7.30;;
4700;SDS011;8724;51.272;6.554;2023-10-09T12:36:32;9.47;;;7.27;;
4700;SDS011;8724;51.272;6.554;2023-10-09T12:39:04;11.67;;;8.73;;
4700;SDS011;8724;51.272;6.554;2023-10-09T12:41:32;10.07;;;7.60;;
4700;SDS011;8724;51.272;6.554;2023-10-09T12:44:07;10.33;;;8.90;;
4700;SDS011;8724;51.272;6.554;2023-10-09T12:46:41;11.07;;;8.80;;
4700;SDS011;8724;51.272;6.554;2023-10-09T12:49:20;11.93;;;8.10;;
4700;SDS011;8724;51.272;6.554;2023-10-09T12:51:52;12.77;;;7.93;;
4700;SDS011;8724;51.272;6.554;2023-10-09T12:54:20;13.27;;;8.40;;
4700;SDS011;8724;51.272;6.554;2023-10-09T12:56:54;10.17;;;8.00;;
4700;SDS011;8724;51.272;6.554;2023-10-09T12:59:24;14.97;;;8.90;;
4700;SDS011;8724;51.272;6.554;2023-10-09T13:01:52;12.93;;;8.93;;
4700;SDS011;8724;51.272;6.554;2023-10-09T13:04:26;14.20;;;9.47;;
4700;SDS011;8724;51.272;6.554;2023-10-09T13:06:59;10.73;;;7.30;;
4700;SDS011;8724;51.272;6.554;2023-10-09T13:09:31;12.00;;;8.83;;
4700;SDS011;8724;51.272;6.554;2023-10-09T13:12:09;12.87;;;9.40;;
4700;SDS011;8724;51.272;6.554;2023-10-09T13:14:45;12.60;;;8.80;;
4700;SDS011;8724;51.272;6.554;2023-10-09T13:17:16;14.80;;;8.57;;
4700;SDS011;8724;51.272;6.554;2023-10-09T13:19:48;11.80;;;8.93;;
4700;SDS011;8724;51.272;6.554;2023-10-09T13:22:16;14.23;;;9.87;;
4700;SDS011;8724;51.272;6.554;2023-10-09T13:24:44;11.13;;;9.03;;
4700;SDS011;8724;51.272;6.554;2023-10-09T13:27:16;11.70;;;9.63;;
4700;SDS011;8724;51.272;6.554;2023-10-09T13:29:48;14.30;;;9.00;;
4700;SDS011;8724;51.272;6.554;2023-10-09T13:32:18;16.93;;;7.83;;
4700;SDS011;8724;51.272;6.554;2023-10-09T13:34:48;11.87;;;8.70;;
4700;SDS011;8724;51.272;6.554;2023-10-09T13:37:17;11.50;;;8.27;;
4700;SDS011;8724;51.272;6.554;2023-10-09T13:39:48;13.37;;;8.80;;
4700;SDS011;8724;51.272;6.554;2023-10-09T13:42:19;13.03;;;8.43;;
4700;SDS011;8724;51.272;6.554;2023-10-09T13:44:52;10.07;;;7.27;;
4700;SDS011;8724;51.272;6.554;2023-10-09T13:47:21;11.03;;;7.17;;
4700;SDS011;8724;51.272;6.554;2023-10-09T13:49:55;10.57;;;8.30;;
4700;SDS011;8724;51.272;6.554;2023-10-09T13:52:24;14.90;;;9.33;;
4700;SDS011;8724;51.272;6.554;2023-10-09T13:54:53;11.43;;;8.20;;
4700;SDS011;8724;51.272;6.554;2023-10-09T13:57:21;9.10;;;8.00;;
4700;SDS011;8724;51.272;6.554;2023-10-09T13:59:58;13.53;;;8.80;;
4700;SDS011;8724;51.272;6.554;2023-10-09T14:02:26;15.50;;;8.70;;
4700;SDS011;8724;51.272;6.554;2023-10-09T14:04:57;13.10;;;9.67;;
4700;SDS011;8724;51.272;6.554;2023-10-09T14:07:27;11.33;;;9.63;;
4700;SDS011;8724;51.272;6.554;2023-10-09T14:09:56;13.87;;;9.57;;
4700;SDS011;8724;51.272;6.554;2023-10-09T14:12:34;12.07;;;10.77;;
4700;SDS011;8724;51.272;6.554;2023-10-09T14:15:07;14.37;;;9.40;;
4700;SDS011;8724;51.272;6.554;2023-10-09T14:17:43;13.50;;;9.63;;
4700;SDS011;8724;51.272;6.554;2023-10-09T14:20:15;14.57;;;9.60;;
4700;SDS011;8724;51.272;6.554;2023-10-09T14:22:59;13.60;;;9.17;;
4700;SDS011;8724;51.272;6.554;2023-10-09T14:25:33;10.30;;;7.50;;
4700;SDS011;8724;51.272;6.554;2023-10-09T14:28:04;13.77;;;7.90;;
4700;SDS011;8724;51.272;6.554;2023-10-09T14:30:34;11.33;;;9.00;;
4700;SDS011;8724;51.272;6.554;2023-10-09T14:33:08;18.63;;;10.50;;
4700;SDS011;8724;51.272;6.554;2023-10-09T14:35:41;15.20;;;10.07;;
4700;SDS011;8724;51.272;6.554;2023-10-09T14:38:11;13.73;;;8.23;;
4700;SDS011;8724;51.272;6.554;2023-10-09T14:40:43;12.20;;;8.37;;
4700;SDS011;8724;51.272;6.554;2023-10-09T14:43:12;11.60;;;8.60;;
4700;SDS011;8724;51.272;6.554;2023-10-09T14:45:46;11.80;;;9.17;;
4700;SDS011;8724;51.272;6.554;2023-10-09T14:48:16;12.47;;;7.57;;
4700;SDS011;8724;51.272;6.554;2023-10-09T14:50:47;15.60;;;10.57;;
4700;SDS011;8724;51.272;6.554;2023-10-09T14:53:19;14.53;;;8.83;;
4700;SDS011;8724;51.272;6.554;2023-10-09T14:55:53;14.43;;;10.33;;
4700;SDS011;8724;51.272;6.554;2023-10-09T14:58:22;14.00;;;8.70;;
4700;SDS011;8724;51.272;6.554;2023-10-09T15:00:51;14.33;;;8.57;;
4700;SDS011;8724;51.272;6.554;2023-10-09T15:03:20;13.43;;;9.73;;
4700;SDS011;8724;51.272;6.554;2023-10-09T15:05:50;14.80;;;9.87;;
4700;SDS011;8724;51.272;6.554;2023-10-09T15:08:18;17.90;;;9.80;;
4700;SDS011;8724;51.272;6.554;2023-10-09T15:10:47;13.47;;;8.30;;
4700;SDS011;8724;51.272;6.554;2023-10-09T15:13:18;16.27;;;11.00;;
4700;SDS011;8724;51.272;6.554;2023-10-09T15:15:46;18.30;;;10.20;;
4700;SDS011;8724;51.272;6.554;2023-10-09T15:18:18;11.87;;;8.13;;
4700;SDS011;8724;51.272;6.554;2023-10-09T15:20:48;16.13;;;10.00;;
4700;SDS011;8724;51.272;6.554;2023-10-09T15:23:19;12.93;;;8.83;;
4700;SDS011;8724;51.272;6.554;2023-10-09T15:25:48;12.10;;;8.77;;
4700;SDS011;8724;51.272;6.554;2023-10-09T15:28:18;19.63;;;9.50;;
4700;SDS011;8724;51.272;6.554;2023-10-09T15:30:47;16.17;;;8.73;;
4700;SDS011;8724;51.272;6.554;2023-10-09T15:33:16;12.30;;;9.13;;
4700;SDS011;8724;51.272;6.554;2023-10-09T15:35:45;12.60;;;8.83;;
4700;SDS011;8724;51.272;6.554;2023-10-09T15:38:16;12.30;;;8.57;;
4700;SDS011;8724;51.272;6.554;2023-10-09T15:40:47;15.40;;;10.03;;
4700;SDS011;8724;51.272;6.554;2023-10-09T15:43:16;25.60;;;10.90;;
4700;SDS011;8724;51.272;6.554;2023-10-09T15:45:44;14.17;;;10.07;;
4700;SDS011;8724;51.272;6.554;2023-10-09T15:48:14;14.03;;;8.53;;
4700;SDS011;8724;51.272;6.554;2023-10-09T15:50:44;13.93;;;9.60;;
4700;SDS011;8724;51.272;6.554;2023-10-09T15:53:14;11.80;;;9.10;;
4700;SDS011;8724;51.272;6.554;2023-10-09T15:55:44;16.10;;;10.20;;
4700;SDS011;8724;51.272;6.554;2023-10-09T15:58:19;17.50;;;11.23;;
4700;SDS011;8724;51.272;6.554;2023-10-09T16:00:48;12.60;;;8.73;;
4700;SDS011;8724;51.272;6.554;2023-10-09T16:03:17;10.10;;;8.07;;
4700;SDS011;8724;51.272;6.554;2023-10-09T16:05:45;14.80;;;10.10;;